
Distance (Route):
Temperature : 9.9°C
Humidity : 40.4%
Pressure : 0hPa| Receiver | Frames | First received | Last received |
|---|---|---|---|
| LZ4TU-5 | 138 | 2026-09-05 05:26:26 | 2026-09-05 07:03:16 |
| Receiver | Date | Latitude | Longitude | Direction | Speed | Altitude | Climb | Temperature | Humidity | Pressure | Voltage | Killtimer | Uptime | BKT | XDATA |
|---|---|---|---|---|---|---|---|---|---|---|---|---|---|---|---|
| LZ4TU-5 | 2026-09-05 07:03:16 | 43.17484 | 22.13229 | 176° | 16km/h | 3286m | -14.7m/s | 9.9°C | 40.4% | 0hPa | 0V | 00:00:00 | 00:00:00 | 00:00:00 | |
| LZ4TU-5 | 2026-09-05 07:03:12 | 43.17498 | 22.13228 | 181° | 15km/h | 3347m | -14.9m/s | 9.3°C | 41.8% | 0hPa | 0V | 00:00:00 | 00:00:00 | 00:00:00 | |
| LZ4TU-5 | 2026-09-05 07:03:07 | 43.17517 | 22.13231 | 194° | 15km/h | 3424m | -15.0m/s | 8.7°C | 43.3% | 0hPa | 0V | 00:00:00 | 00:00:00 | 00:00:00 | |
| LZ4TU-5 | 2026-09-05 07:03:03 | 43.17530 | 22.13235 | 201° | 13km/h | 3485m | -14.8m/s | 8.3°C | 42.8% | 0hPa | 0V | 00:00:00 | 00:00:00 | 00:00:00 | |
| LZ4TU-5 | 2026-09-05 07:02:58 | 43.17545 | 22.13245 | 208° | 13km/h | 3561m | -14.8m/s | 7.7°C | 42.9% | 0hPa | 0V | 00:00:00 | 00:00:00 | 00:00:00 | |
| LZ4TU-5 | 2026-09-05 07:02:53 | 43.17558 | 22.13256 | 221° | 15km/h | 3636m | -14.6m/s | 7.3°C | 39.6% | 0hPa | 0V | 00:00:00 | 00:00:00 | 00:00:00 | |
| LZ4TU-5 | 2026-09-05 07:02:49 | 43.17568 | 22.13271 | 227° | 15km/h | 3695m | -14.6m/s | 6.8°C | 39.7% | 0hPa | 0V | 00:00:00 | 00:00:00 | 00:00:00 | |
| LZ4TU-5 | 2026-09-05 07:02:45 | 43.17579 | 22.13286 | 230° | 16km/h | 3757m | -14.4m/s | 6.3°C | 42.1% | 0hPa | 0V | 00:00:00 | 00:00:00 | 00:00:00 | |
| LZ4TU-5 | 2026-09-05 07:02:41 | 43.17590 | 22.13302 | 227° | 15km/h | 3819m | -15.5m/s | 5.8°C | 43.5% | 0hPa | 0V | 00:00:00 | 00:00:00 | 00:00:00 | |
| LZ4TU-5 | 2026-09-05 07:02:37 | 43.17601 | 22.13316 | 218° | 15km/h | 3882m | -14.8m/s | 5.3°C | 41.7% | 0hPa | 0V | 00:00:00 | 00:00:00 | 00:00:00 | |
| LZ4TU-5 | 2026-09-05 07:02:32 | 43.17619 | 22.13330 | 210° | 16km/h | 3961m | -15.4m/s | 4.9°C | 36.9% | 0hPa | 0V | 00:00:00 | 00:00:00 | 00:00:00 | |
| LZ4TU-5 | 2026-09-05 07:02:28 | 43.17638 | 22.13344 | 203° | 20km/h | 4041m | -15.9m/s | 4.2°C | 37.0% | 0hPa | 0V | 00:00:00 | 00:00:00 | 00:00:00 | |
| LZ4TU-5 | 2026-09-05 07:01:25 | 43.18017 | 22.13463 | 197° | 27km/h | 5019m | -16.2m/s | -3.4°C | 37.7% | 0hPa | 0V | 00:00:00 | 00:00:00 | 00:00:00 | |
| LZ4TU-5 | 2026-09-05 07:01:20 | 43.18049 | 22.13476 | 197° | 26km/h | 5103m | -16.2m/s | -4.1°C | 0% | 0hPa | 0V | 00:00:00 | 00:00:00 | 00:00:00 | |
| LZ4TU-5 | 2026-09-05 07:00:17 | 43.18394 | 22.13675 | 187° | 29km/h | 6145m | -17.0m/s | -10.7°C | 20.9% | 0hPa | 0V | 00:00:00 | 00:00:00 | 00:00:00 | |
| LZ4TU-5 | 2026-09-05 07:00:12 | 43.18429 | 22.13678 | 177° | 27km/h | 6231m | -17.1m/s | -10.9°C | 18.0% | 0hPa | 0V | 00:00:00 | 00:00:00 | 00:00:00 | |
| LZ4TU-5 | 2026-09-05 06:54:45 | 43.20134 | 22.11305 | 158° | 24km/h | 12833m | -23.6m/s | -59.4°C | 19.6% | 0hPa | 0V | 00:00:00 | 00:00:00 | 00:00:00 | |
| LZ4TU-5 | 2026-09-05 06:54:40 | 43.20162 | 22.11290 | 155° | 22km/h | 12956m | -23.8m/s | -60.4°C | 17.9% | 0hPa | 0V | 00:00:00 | 00:00:00 | 00:00:00 | |
| LZ4TU-5 | 2026-09-05 06:53:21 | 43.20571 | 22.10746 | 136° | 24km/h | 14968m | -27.9m/s | -60.9°C | 0.0% | 0hPa | 0V | 00:00:00 | 00:00:00 | 00:00:00 | |
| LZ4TU-5 | 2026-09-05 06:51:50 | 43.20558 | 22.09732 | 110° | 38km/h | 17775m | -34.8m/s | -60.0°C | 0.0% | 0hPa | 0V | 00:00:00 | 00:00:00 | 00:00:00 | |
| LZ4TU-5 | 2026-09-05 06:51:45 | 43.20575 | 22.09680 | 121° | 29km/h | 17954m | -35.5m/s | -60.3°C | 0.0% | 0hPa | 0V | 00:00:00 | 00:00:00 | 00:00:00 | |
| LZ4TU-5 | 2026-09-05 06:50:26 | 43.20524 | 22.09384 | 104° | 11km/h | 21084m | -45.2m/s | -54.4°C | 0.0% | 0hPa | 0V | 00:00:00 | 00:00:00 | 00:00:00 | |
| LZ4TU-5 | 2026-09-05 06:50:22 | 43.20529 | 22.09374 | 176° | 9km/h | 21270m | -45.1m/s | -54.1°C | 0.0% | 0hPa | 0V | 00:00:00 | 00:00:00 | 00:00:00 | |
| LZ4TU-5 | 2026-09-05 06:48:28 | 43.20424 | 22.09509 | 343° | 15km/h | 27591m | -71.3m/s | -45.1°C | 0.0% | 0hPa | 0V | 00:00:00 | 00:00:00 | 00:00:00 | |
| LZ4TU-5 | 2026-09-05 06:48:23 | 43.20408 | 22.09522 | 309° | 13km/h | 27947m | -73.1m/s | -43.3°C | 0% | 0hPa | 0V | 00:00:00 | 00:00:00 | 00:00:00 | |
| LZ4TU-5 | 2026-09-05 06:47:02 | 43.20105 | 22.09580 | 19° | 38km/h | 30217m | 4.9m/s | -44.3°C | 0.2% | 0hPa | 0V | 00:00:00 | 00:00:00 | 00:00:00 | |
| LZ4TU-5 | 2026-09-05 06:46:58 | 43.20090 | 22.09586 | 296° | 26km/h | 30195m | 4.7m/s | -44.2°C | 0.1% | 0hPa | 0V | 00:00:00 | 00:00:00 | 00:00:00 | |
| LZ4TU-5 | 2026-09-05 06:45:38 | 43.19870 | 22.09727 | 277° | 9km/h | 29704m | 6.8m/s | -45.7°C | 0.3% | 0hPa | 0V | 00:00:00 | 00:00:00 | 00:00:00 | |
| LZ4TU-5 | 2026-09-05 06:45:33 | 43.19877 | 22.09731 | 63° | 13km/h | 29671m | 8.6m/s | -45.8°C | 0.3% | 0hPa | 0V | 00:00:00 | 00:00:00 | 00:00:00 | |
| LZ4TU-5 | 2026-09-05 06:45:28 | 43.19865 | 22.09710 | 201° | 9km/h | 29640m | 8.4m/s | -45.9°C | 0.4% | 0hPa | 0V | 00:00:00 | 00:00:00 | 00:00:00 | |
| LZ4TU-5 | 2026-09-05 06:44:06 | 43.19672 | 22.09822 | 267° | 13km/h | 29092m | 6.3m/s | -44.5°C | 0.1% | 0hPa | 0V | 00:00:00 | 00:00:00 | 00:00:00 | |
| LZ4TU-5 | 2026-09-05 06:44:01 | 43.19651 | 22.09832 | 14° | 29km/h | 29055m | 6.1m/s | -44.5°C | 0% | 0hPa | 0V | 00:00:00 | 00:00:00 | 00:00:00 | |
| LZ4TU-5 | 2026-09-05 06:42:15 | 43.19398 | 22.10043 | 230° | 20km/h | 28347m | 5.6m/s | -44.2°C | 0.0% | 0hPa | 0V | 00:00:00 | 00:00:00 | 00:00:00 | |
| LZ4TU-5 | 2026-09-05 06:42:10 | 43.19406 | 22.10050 | 46° | 9km/h | 28315m | 7.4m/s | -44.3°C | 0% | 0hPa | 0V | 00:00:00 | 00:00:00 | 00:00:00 | |
| LZ4TU-5 | 2026-09-05 06:40:51 | 43.19265 | 22.10189 | 232° | 20km/h | 27836m | 5.4m/s | -46.0°C | 0.0% | 0hPa | 0V | 00:00:00 | 00:00:00 | 00:00:00 | |
| LZ4TU-5 | 2026-09-05 06:40:46 | 43.19256 | 22.10197 | 350° | 24km/h | 27805m | 5.6m/s | -46.2°C | 0.0% | 0hPa | 0V | 00:00:00 | 00:00:00 | 00:00:00 | |
| LZ4TU-5 | 2026-09-05 06:39:25 | 43.19188 | 22.10419 | 331° | 22km/h | 27270m | 6.3m/s | -47.5°C | 0.0% | 0hPa | 0V | 00:00:00 | 00:00:00 | 00:00:00 | |
| LZ4TU-5 | 2026-09-05 06:39:20 | 43.19173 | 22.10433 | 292° | 11km/h | 27235m | 8.8m/s | -47.4°C | 0.0% | 0hPa | 0V | 00:00:00 | 00:00:00 | 00:00:00 | |
| LZ4TU-5 | 2026-09-05 06:38:00 | 43.19101 | 22.10741 | 264° | 24km/h | 26708m | 6.7m/s | -48.3°C | 0.0% | 0hPa | 0V | 00:00:00 | 00:00:00 | 00:00:00 | |
| LZ4TU-5 | 2026-09-05 06:37:55 | 43.19095 | 22.10746 | 0° | 0km/h | 26673m | 7.4m/s | -48.4°C | 0% | 0hPa | 0V | 00:00:00 | 00:00:00 | 00:00:00 | |
| LZ4TU-5 | 2026-09-05 06:36:36 | 43.19023 | 22.10918 | 349° | 15km/h | 26195m | 7.5m/s | -49.5°C | 0.0% | 0hPa | 0V | 00:00:00 | 00:00:00 | 00:00:00 | |
| LZ4TU-5 | 2026-09-05 06:36:31 | 43.19015 | 22.10938 | 223° | 22km/h | 26163m | 6.4m/s | -49.7°C | 0.0% | 0hPa | 0V | 00:00:00 | 00:00:00 | 00:00:00 | |
| LZ4TU-5 | 2026-09-05 06:35:02 | 43.18917 | 22.11342 | 211° | 18km/h | 25640m | 4.2m/s | -49.8°C | 0.0% | 0hPa | 0V | 00:00:00 | 00:00:00 | 00:00:00 | |
| LZ4TU-5 | 2026-09-05 06:34:57 | 43.18911 | 22.11384 | 293° | 26km/h | 25607m | 4.6m/s | -49.9°C | 0.0% | 0hPa | 0V | 00:00:00 | 00:00:00 | 00:00:00 | |
| LZ4TU-5 | 2026-09-05 06:33:36 | 43.18988 | 22.11368 | 358° | 5km/h | 25113m | 4.7m/s | -50.8°C | 0.0% | 0hPa | 0V | 00:00:00 | 00:00:00 | 00:00:00 | |
| LZ4TU-5 | 2026-09-05 06:33:31 | 43.18964 | 22.11366 | 17° | 27km/h | 25082m | 6.3m/s | -50.7°C | 0% | 0hPa | 0V | 00:00:00 | 00:00:00 | 00:00:00 | |
| LZ4TU-5 | 2026-09-05 06:32:11 | 43.18861 | 22.11463 | 35° | 11km/h | 24594m | 7.1m/s | -51.3°C | 0.0% | 0hPa | 0V | 00:00:00 | 00:00:00 | 00:00:00 | |
| LZ4TU-5 | 2026-09-05 06:32:06 | 43.18849 | 22.11456 | 337° | 9km/h | 24564m | 5.3m/s | -51.3°C | 0.0% | 0hPa | 0V | 00:00:00 | 00:00:00 | 00:00:00 | |
| LZ4TU-5 | 2026-09-05 06:30:36 | 43.18824 | 22.11591 | 33° | 11km/h | 24005m | 6.2m/s | -51.4°C | 0.0% | 0hPa | 0V | 00:00:00 | 00:00:00 | 00:00:00 | |
| LZ4TU-5 | 2026-09-05 06:29:03 | 43.18813 | 22.11448 | 53° | 18km/h | 23471m | 6.5m/s | -54.2°C | 0.0% | 0hPa | 0V | 00:00:00 | 00:00:00 | 00:00:00 | |
| LZ4TU-5 | 2026-09-05 06:28:58 | 43.18805 | 22.11425 | 91° | 11km/h | 23445m | 4.8m/s | -54.3°C | 0.0% | 0hPa | 0V | 00:00:00 | 00:00:00 | 00:00:00 | |
| LZ4TU-5 | 2026-09-05 06:27:32 | 43.18640 | 22.11204 | 40° | 29km/h | 22941m | 4.0m/s | -53.6°C | 0.0% | 0hPa | 0V | 00:00:00 | 00:00:00 | 00:00:00 | |
| LZ4TU-5 | 2026-09-05 06:27:28 | 43.18621 | 22.11201 | 321° | 22km/h | 22916m | 7.2m/s | -53.4°C | 0.0% | 0hPa | 0V | 00:00:00 | 00:00:00 | 00:00:00 | |
| LZ4TU-5 | 2026-09-05 06:26:09 | 43.18545 | 22.11528 | 194° | 33km/h | 22448m | 7.5m/s | -54.0°C | 0.0% | 0hPa | 0V | 00:00:00 | 00:00:00 | 00:00:00 | |
| LZ4TU-5 | 2026-09-05 06:26:04 | 43.18579 | 22.11532 | 194° | 15km/h | 22421m | 5.8m/s | -53.9°C | 0.0% | 0hPa | 0V | 00:00:00 | 00:00:00 | 00:00:00 | |
| LZ4TU-5 | 2026-09-05 06:24:44 | 43.18695 | 22.11380 | 3° | 22km/h | 21949m | 5.9m/s | -54.5°C | 0.0% | 0hPa | 0V | 00:00:00 | 00:00:00 | 00:00:00 | |
| LZ4TU-5 | 2026-09-05 06:24:39 | 43.18675 | 22.11364 | 35° | 16km/h | 21920m | 6.8m/s | -54.8°C | 0.0% | 0hPa | 0V | 00:00:00 | 00:00:00 | 00:00:00 | |
| LZ4TU-5 | 2026-09-05 06:23:20 | 43.18538 | 22.11541 | 165° | 16km/h | 21466m | 6.7m/s | -54.2°C | 0.0% | 0hPa | 0V | 00:00:00 | 00:00:00 | 00:00:00 | |
| LZ4TU-5 | 2026-09-05 06:23:15 | 43.18545 | 22.11536 | 153° | 11km/h | 21437m | 6.5m/s | -54.3°C | 0.0% | 0hPa | 0V | 00:00:00 | 00:00:00 | 00:00:00 | |
| LZ4TU-5 | 2026-09-05 06:21:54 | 43.18563 | 22.11211 | 0° | 0km/h | 20973m | 5.9m/s | -55.7°C | 0.0% | 0hPa | 0V | 00:00:00 | 00:00:00 | 00:00:00 | |
| LZ4TU-5 | 2026-09-05 06:21:49 | 43.18569 | 22.11207 | 100° | 13km/h | 20947m | 3.8m/s | -55.7°C | 0.0% | 0hPa | 0V | 00:00:00 | 00:00:00 | 00:00:00 | |
| LZ4TU-5 | 2026-09-05 06:20:29 | 43.18358 | 22.10996 | 12° | 31km/h | 20492m | 5.7m/s | -57.0°C | 0.0% | 0hPa | 0V | 00:00:00 | 00:00:00 | 00:00:00 | |
| LZ4TU-5 | 2026-09-05 06:20:24 | 43.18336 | 22.10989 | 332° | 9km/h | 20464m | 5.8m/s | -56.8°C | 0.0% | 0hPa | 0V | 00:00:00 | 00:00:00 | 00:00:00 | |
| LZ4TU-5 | 2026-09-05 06:19:03 | 43.18212 | 22.11190 | 101° | 11km/h | 20017m | 5.8m/s | -58.2°C | 0.0% | 0hPa | 0V | 00:00:00 | 00:00:00 | 00:00:00 | |
| LZ4TU-5 | 2026-09-05 06:18:58 | 43.18205 | 22.11167 | 33° | 16km/h | 19991m | 5.8m/s | -58.1°C | 0.0% | 0hPa | 0V | 00:00:00 | 00:00:00 | 00:00:00 | |
| LZ4TU-5 | 2026-09-05 06:17:37 | 43.18023 | 22.10974 | 26° | 18km/h | 19539m | 5.5m/s | -56.8°C | 0.0% | 0hPa | 0V | 00:00:00 | 00:00:00 | 00:00:00 | |
| LZ4TU-5 | 2026-09-05 06:17:32 | 43.18019 | 22.10972 | 149° | 11km/h | 19511m | 6.6m/s | -56.6°C | 0.0% | 0hPa | 0V | 00:00:00 | 00:00:00 | 00:00:00 | |
| LZ4TU-5 | 2026-09-05 06:16:14 | 43.18193 | 22.10606 | 96° | 20km/h | 19085m | 5.5m/s | -58.3°C | 0.0% | 0hPa | 0V | 00:00:00 | 00:00:00 | 00:00:00 | |
| LZ4TU-5 | 2026-09-05 06:16:09 | 43.18187 | 22.10578 | 72° | 16km/h | 19057m | 6.5m/s | -58.7°C | 0.0% | 0hPa | 0V | 00:00:00 | 00:00:00 | 00:00:00 | |
| LZ4TU-5 | 2026-09-05 06:14:44 | 43.18104 | 22.09917 | 47° | 5km/h | 18588m | 5.7m/s | -58.9°C | 0.0% | 0hPa | 0V | 00:00:00 | 00:00:00 | 00:00:00 | |
| LZ4TU-5 | 2026-09-05 06:13:25 | 43.18232 | 22.09484 | 112° | 26km/h | 18170m | 5.4m/s | -60.2°C | 0.1% | 0hPa | 0V | 00:00:00 | 00:00:00 | 00:00:00 | |
| LZ4TU-5 | 2026-09-05 06:13:21 | 43.18241 | 22.09459 | 140° | 11km/h | 18148m | 6.4m/s | -60.3°C | 0.2% | 0hPa | 0V | 00:00:00 | 00:00:00 | 00:00:00 | |
| LZ4TU-5 | 2026-09-05 06:12:01 | 43.18377 | 22.08668 | 96° | 40km/h | 17723m | 6.0m/s | -59.6°C | 0% | 0hPa | 0V | 00:00:00 | 00:00:00 | 00:00:00 | |
| LZ4TU-5 | 2026-09-05 06:11:56 | 43.18385 | 22.08595 | 99° | 47km/h | 17699m | 4.8m/s | -59.8°C | 0.3% | 0hPa | 0V | 00:00:00 | 00:00:00 | 00:00:00 | |
| LZ4TU-5 | 2026-09-05 06:10:38 | 43.18262 | 22.07461 | 92° | 31km/h | 17287m | 4.0m/s | -60.5°C | 0.9% | 0hPa | 0V | 00:00:00 | 00:00:00 | 00:00:00 | |
| LZ4TU-5 | 2026-09-05 06:10:34 | 43.18257 | 22.07414 | 82° | 35km/h | 17268m | 4.4m/s | -60.5°C | 1.0% | 0hPa | 0V | 00:00:00 | 00:00:00 | 00:00:00 | |
| LZ4TU-5 | 2026-09-05 06:09:13 | 43.18138 | 22.06552 | 102° | 42km/h | 16855m | 5.2m/s | -60.0°C | 1.5% | 0hPa | 0V | 00:00:00 | 00:00:00 | 00:00:00 | |
| LZ4TU-5 | 2026-09-05 06:09:08 | 43.18139 | 22.06487 | 77° | 40km/h | 16830m | 4.7m/s | -60.0°C | 1.5% | 0hPa | 0V | 00:00:00 | 00:00:00 | 00:00:00 | |
| LZ4TU-5 | 2026-09-05 06:07:39 | 43.18125 | 22.05530 | 92° | 40km/h | 16357m | 5.7m/s | -59.9°C | 2.4% | 0hPa | 0V | 00:00:00 | 00:00:00 | 00:00:00 | |
| LZ4TU-5 | 2026-09-05 06:07:35 | 43.18123 | 22.05476 | 82° | 33km/h | 16336m | 4.3m/s | -59.7°C | 2.3% | 0hPa | 0V | 00:00:00 | 00:00:00 | 00:00:00 | |
| LZ4TU-5 | 2026-09-05 06:06:15 | 43.18082 | 22.04634 | 107° | 29km/h | 15926m | 5.6m/s | -61.9°C | 3.0% | 0hPa | 0V | 00:00:00 | 00:00:00 | 00:00:00 | |
| LZ4TU-5 | 2026-09-05 06:06:10 | 43.18088 | 22.04582 | 85° | 27km/h | 15901m | 5.7m/s | -61.9°C | 3.2% | 0hPa | 0V | 00:00:00 | 00:00:00 | 00:00:00 | |
| LZ4TU-5 | 2026-09-05 06:04:47 | 43.17995 | 22.03631 | 78° | 26km/h | 15472m | 6.2m/s | -61.3°C | 5.1% | 0hPa | 0V | 00:00:00 | 00:00:00 | 00:00:00 | |
| LZ4TU-5 | 2026-09-05 06:04:42 | 43.17995 | 22.03579 | 80° | 26km/h | 15446m | 6.1m/s | -61.1°C | 5.3% | 0hPa | 0V | 00:00:00 | 00:00:00 | 00:00:00 | |
| LZ4TU-5 | 2026-09-05 06:03:23 | 43.18097 | 22.03112 | 152° | 37km/h | 15053m | 5.4m/s | -60.9°C | 9.1% | 0hPa | 0V | 00:00:00 | 00:00:00 | 00:00:00 | |
| LZ4TU-5 | 2026-09-05 06:03:18 | 43.18132 | 22.03080 | 136° | 27km/h | 15028m | 4.7m/s | -61.0°C | 9.5% | 0hPa | 0V | 00:00:00 | 00:00:00 | 00:00:00 | |
| LZ4TU-5 | 2026-09-05 06:01:58 | 43.18741 | 22.02115 | 126° | 46km/h | 14634m | 5.8m/s | -62.3°C | 16.8% | 0hPa | 0V | 00:00:00 | 00:00:00 | 00:00:00 | |
| LZ4TU-5 | 2026-09-05 06:01:53 | 43.18776 | 22.02045 | 129° | 58km/h | 14612m | 3.6m/s | -62.4°C | 17.3% | 0hPa | 0V | 00:00:00 | 00:00:00 | 00:00:00 | |
| LZ4TU-5 | 2026-09-05 06:00:33 | 43.19160 | 22.01230 | 128° | 40km/h | 14184m | 7.9m/s | -65.6°C | 25.5% | 0hPa | 0V | 00:00:00 | 00:00:00 | 00:00:00 | |
| LZ4TU-5 | 2026-09-05 06:00:28 | 43.19190 | 22.01184 | 136° | 33km/h | 14153m | 6.0m/s | -65.9°C | 25.8% | 0hPa | 0V | 00:00:00 | 00:00:00 | 00:00:00 | |
| LZ4TU-5 | 2026-09-05 05:59:09 | 43.19492 | 22.00588 | 150° | 22km/h | 13749m | 4.5m/s | -65.2°C | 28.2% | 0hPa | 0V | 00:00:00 | 00:00:00 | 00:00:00 | |
| LZ4TU-5 | 2026-09-05 05:59:05 | 43.19516 | 22.00577 | 161° | 26km/h | 13729m | 5.6m/s | -65.4°C | 28.5% | 0hPa | 0V | 00:00:00 | 00:00:00 | 00:00:00 | |
| LZ4TU-5 | 2026-09-05 05:57:46 | 43.19947 | 22.00191 | 189° | 13km/h | 13358m | 3.0m/s | -63.9°C | 25.3% | 0hPa | 0V | 00:00:00 | 00:00:00 | 00:00:00 | |
| LZ4TU-5 | 2026-09-05 05:57:41 | 43.19987 | 22.00178 | 155° | 47km/h | 13336m | 3.6m/s | -63.7°C | 25.5% | 0hPa | 0V | 00:00:00 | 00:00:00 | 00:00:00 | |
| LZ4TU-5 | 2026-09-05 05:56:21 | 43.20464 | 21.99937 | 170° | 26km/h | 12952m | 4.2m/s | -61.2°C | 24.8% | 0hPa | 0V | 00:00:00 | 00:00:00 | 00:00:00 | |
| LZ4TU-5 | 2026-09-05 05:54:57 | 43.20923 | 21.99714 | 159° | 24km/h | 12540m | 3.7m/s | -58.0°C | 22.7% | 0hPa | 0V | 00:00:00 | 00:00:00 | 00:00:00 | |
| LZ4TU-5 | 2026-09-05 05:54:52 | 43.20960 | 21.99694 | 160° | 33km/h | 12508m | 6.2m/s | -57.7°C | 22.4% | 0hPa | 0V | 00:00:00 | 00:00:00 | 00:00:00 | |
| LZ4TU-5 | 2026-09-05 05:53:32 | 43.21511 | 21.99342 | 169° | 33km/h | 12087m | 6.6m/s | -54.5°C | 21.3% | 0hPa | 0V | 00:00:00 | 00:00:00 | 00:00:00 | |
| LZ4TU-5 | 2026-09-05 05:53:27 | 43.21542 | 21.99320 | 119° | 29km/h | 12063m | 3.8m/s | -54.4°C | 21.4% | 0hPa | 0V | 00:00:00 | 00:00:00 | 00:00:00 | |
| LZ4TU-5 | 2026-09-05 05:52:09 | 43.22060 | 21.98603 | 124° | 46km/h | 11670m | 3.9m/s | -51.6°C | 17.7% | 0hPa | 0V | 00:00:00 | 00:00:00 | 00:00:00 | |
| LZ4TU-5 | 2026-09-05 05:52:04 | 43.22092 | 21.98549 | 134° | 35km/h | 11648m | 4.3m/s | -51.4°C | 17.9% | 0hPa | 0V | 00:00:00 | 00:00:00 | 00:00:00 | |
| LZ4TU-5 | 2026-09-05 05:50:43 | 43.22588 | 21.97637 | 141° | 42km/h | 11286m | 4.9m/s | -48.5°C | 0% | 0hPa | 0V | 00:00:00 | 00:00:00 | 00:00:00 | |
| LZ4TU-5 | 2026-09-05 05:50:38 | 43.22626 | 21.97571 | 119° | 51km/h | 11266m | 3.3m/s | -48.4°C | 15.7% | 0hPa | 0V | 00:00:00 | 00:00:00 | 00:00:00 | |
| LZ4TU-5 | 2026-09-05 05:49:18 | 43.23155 | 21.96654 | 119° | 37km/h | 10882m | 4.1m/s | -44.9°C | 14.7% | 0hPa | 0V | 00:00:00 | 00:00:00 | 00:00:00 | |
| LZ4TU-5 | 2026-09-05 05:49:13 | 43.23188 | 21.96584 | 125° | 44km/h | 10860m | 3.6m/s | -44.7°C | 14.6% | 0hPa | 0V | 00:00:00 | 00:00:00 | 00:00:00 | |
| LZ4TU-5 | 2026-09-05 05:47:54 | 43.23567 | 21.95708 | 134° | 51km/h | 10456m | 3.3m/s | -41.3°C | 11.1% | 0hPa | 0V | 00:00:00 | 00:00:00 | 00:00:00 | |
| LZ4TU-5 | 2026-09-05 05:47:49 | 43.23595 | 21.95662 | 112° | 31km/h | 10429m | 5.9m/s | -41.1°C | 10.9% | 0hPa | 0V | 00:00:00 | 00:00:00 | 00:00:00 | |
| LZ4TU-5 | 2026-09-05 05:46:21 | 43.23976 | 21.94662 | 120° | 46km/h | 9959m | 5.0m/s | -36.9°C | 7.6% | 0hPa | 0V | 00:00:00 | 00:00:00 | 00:00:00 | |
| LZ4TU-5 | 2026-09-05 05:46:16 | 43.24002 | 21.94603 | 128° | 31km/h | 9937m | 4.3m/s | -36.7°C | 7.4% | 0hPa | 0V | 00:00:00 | 00:00:00 | 00:00:00 | |
| LZ4TU-5 | 2026-09-05 05:44:55 | 43.24428 | 21.93589 | 111° | 31km/h | 9518m | 5.2m/s | -33.3°C | 6.8% | 0hPa | 0V | 00:00:00 | 00:00:00 | 00:00:00 | |
| LZ4TU-5 | 2026-09-05 05:44:50 | 43.24443 | 21.93535 | 105° | 44km/h | 9492m | 5.8m/s | -33.2°C | 6.8% | 0hPa | 0V | 00:00:00 | 00:00:00 | 00:00:00 | |
| LZ4TU-5 | 2026-09-05 05:43:31 | 43.24708 | 21.92559 | 119° | 33km/h | 9104m | 3.8m/s | -30.2°C | 8.4% | 0hPa | 0V | 00:00:00 | 00:00:00 | 00:00:00 | |
| LZ4TU-5 | 2026-09-05 05:43:26 | 43.24725 | 21.92499 | 102° | 35km/h | 9082m | 3.1m/s | -30.1°C | 8.9% | 0hPa | 0V | 00:00:00 | 00:00:00 | 00:00:00 | |
| LZ4TU-5 | 2026-09-05 05:42:07 | 43.25111 | 21.91872 | 174° | 20km/h | 8665m | 5.2m/s | -28.3°C | 12.3% | 0hPa | 0V | 00:00:00 | 00:00:00 | 00:00:00 | |
| LZ4TU-5 | 2026-09-05 05:42:02 | 43.25147 | 21.91836 | 137° | 37km/h | 8637m | 4.3m/s | -28.0°C | 12.3% | 0hPa | 0V | 00:00:00 | 00:00:00 | 00:00:00 | |
| LZ4TU-5 | 2026-09-05 05:40:41 | 43.25737 | 21.91454 | 177° | 38km/h | 8220m | 4.3m/s | -25.0°C | 14.8% | 0hPa | 0V | 00:00:00 | 00:00:00 | 00:00:00 | |
| LZ4TU-5 | 2026-09-05 05:40:36 | 43.25778 | 21.91442 | 158° | 40km/h | 8193m | 6.8m/s | -24.8°C | 14.3% | 0hPa | 0V | 00:00:00 | 00:00:00 | 00:00:00 | |
| LZ4TU-5 | 2026-09-05 05:39:11 | 43.26445 | 21.90988 | 135° | 38km/h | 7762m | 3.4m/s | -21.3°C | 13.1% | 0hPa | 0V | 00:00:00 | 00:00:00 | 00:00:00 | |
| LZ4TU-5 | 2026-09-05 05:39:06 | 43.26491 | 21.90947 | 158° | 42km/h | 7737m | 4.7m/s | -21.1°C | 13.1% | 0hPa | 0V | 00:00:00 | 00:00:00 | 00:00:00 | |
| LZ4TU-5 | 2026-09-05 05:37:42 | 43.26942 | 21.90318 | 170° | 40km/h | 7300m | 5.6m/s | -17.4°C | 11.6% | 0hPa | 0V | 00:00:00 | 00:00:00 | 00:00:00 | |
| LZ4TU-5 | 2026-09-05 05:37:37 | 43.26959 | 21.90300 | 98° | 29km/h | 7270m | 5.4m/s | -17.3°C | 12.4% | 0hPa | 0V | 00:00:00 | 00:00:00 | 00:00:00 | |
| LZ4TU-5 | 2026-09-05 05:36:25 | 43.27326 | 21.89768 | 138° | 24km/h | 6903m | 5.9m/s | -14.0°C | 11.1% | 0hPa | 0V | 00:00:00 | 00:00:00 | 00:00:00 | |
| LZ4TU-5 | 2026-09-05 05:36:20 | 43.27353 | 21.89736 | 130° | 16km/h | 6882m | 4.0m/s | -13.9°C | 11.2% | 0hPa | 0V | 00:00:00 | 00:00:00 | 00:00:00 | |
| LZ4TU-5 | 2026-09-05 05:35:05 | 43.27784 | 21.89282 | 131° | 7km/h | 6481m | 6.0m/s | -11.7°C | 11.2% | 0hPa | 0V | 00:00:00 | 00:00:00 | 00:00:00 | |
| LZ4TU-5 | 2026-09-05 05:35:00 | 43.27799 | 21.89260 | 162° | 37km/h | 6459m | 5.7m/s | -11.5°C | 11.4% | 0hPa | 0V | 00:00:00 | 00:00:00 | 00:00:00 | |
| LZ4TU-5 | 2026-09-05 05:33:47 | 43.28279 | 21.88967 | 204° | 51km/h | 6087m | 4.8m/s | -10.2°C | 16.6% | 0hPa | 0V | 00:00:00 | 00:00:00 | 00:00:00 | |
| LZ4TU-5 | 2026-09-05 05:33:42 | 43.28318 | 21.88965 | 143° | 35km/h | 6057m | 6.7m/s | -10.3°C | 18.2% | 0hPa | 0V | 00:00:00 | 00:00:00 | 00:00:00 | |
| LZ4TU-5 | 2026-09-05 05:32:33 | 43.28905 | 21.89141 | 222° | 46km/h | 5708m | 5.9m/s | -8.9°C | 23.7% | 0hPa | 0V | 00:00:00 | 00:00:00 | 00:00:00 | |
| LZ4TU-5 | 2026-09-05 05:32:29 | 43.28919 | 21.89173 | 220° | 5km/h | 5691m | 3.9m/s | -8.8°C | 23.9% | 0hPa | 0V | 00:00:00 | 00:00:00 | 00:00:00 | |
| LZ4TU-5 | 2026-09-05 05:31:18 | 43.29424 | 21.89381 | 196° | 38km/h | 5306m | 6.3m/s | -6.1°C | 25.6% | 0hPa | 0V | 00:00:00 | 00:00:00 | 00:00:00 | |
| LZ4TU-5 | 2026-09-05 05:31:13 | 43.29442 | 21.89416 | 261° | 18km/h | 5282m | 2.7m/s | -6.4°C | 30.5% | 0hPa | 0V | 00:00:00 | 00:00:00 | 00:00:00 | |
| LZ4TU-5 | 2026-09-05 05:30:05 | 43.29866 | 21.89658 | 154° | 24km/h | 4919m | 6.9m/s | -4.3°C | 39.0% | 0hPa | 0V | 00:00:00 | 00:00:00 | 00:00:00 | |
| LZ4TU-5 | 2026-09-05 05:30:00 | 43.29900 | 21.89665 | 214° | 49km/h | 4895m | 5.6m/s | -4.0°C | 38.6% | 0hPa | 0V | 00:00:00 | 00:00:00 | 00:00:00 | |
| LZ4TU-5 | 2026-09-05 05:28:38 | 43.30353 | 21.90004 | 207° | 20km/h | 4472m | 5.6m/s | -0.6°C | 38.2% | 0hPa | 0V | 00:00:00 | 00:00:00 | 00:00:00 | |
| LZ4TU-5 | 2026-09-05 05:28:33 | 43.30370 | 21.90001 | 172° | 27km/h | 4450m | 3.8m/s | -0.4°C | 38.6% | 0hPa | 0V | 00:00:00 | 00:00:00 | 00:00:00 | |
| LZ4TU-5 | 2026-09-05 05:27:32 | 43.30742 | 21.90219 | 215° | 42km/h | 4119m | 6.8m/s | 2.4°C | 35.3% | 0hPa | 0V | 00:00:00 | 00:00:00 | 00:00:00 | |
| LZ4TU-5 | 2026-09-05 05:27:28 | 43.30771 | 21.90241 | 192° | 22km/h | 4095m | 5.4m/s | 2.7°C | 0% | 0hPa | 0V | 00:00:00 | 00:00:00 | 00:00:00 | |
| LZ4TU-5 | 2026-09-05 05:26:26 | 43.31149 | 21.90526 | 223° | 22km/h | 3770m | 6.9m/s | 5.1°C | 37.2% | 0hPa | 0V | 00:00:00 | 00:00:00 | 00:00:00 |